首页
METAR-TAF:

METAR-TAF

机场 :

卡拉马祖 / 巴特爾克里克, 密歇根州, 美国

纬度: 42-13-45N, 经度: 085-32-47W, 海拔: 266米

当前天气观测

该预报发布于32分钟前的20:53 UTC
风速8节,风向西转西北,有时为17节阵风
温度 26°C
湿度 39%
气压 1016 hPa
能見度: 16.1公里
天空无云

METAR: KAZO 062053Z 29008G17KT 10SM CLR 26/11 A3000 RMK AO2 SLP156 T02610106 56008

时间: 17:25 (21:25 UTC)

预报

该预报发布于16分钟前的21:09 UTC
预报有效从06日的 21点(UTC)到 07日的 18点(UTC)
风速8节,风向西转西北,有时为18节阵风
能見度: 10公里
天空无云
从 07日的 0100点(UTC)
风速3节,风向多变
能見度: 10公里
多云层高于25000英尺

TAF: KAZO 062109Z 0621/0718 30008G18KT P6SM SKC FM070100 VRB03KT P6SM BKN250

超过4000个机场的气象观测和天气预报(METAR&TAF报告)。

可查询的气象台以黄色和红色小点在地图上表示。

将鼠标移到小点上方,可查看气象台名称。

然后点击查看天气观测和预报。

如需切换地图:点击带黑十字的绿色按钮放大地图;点击带横线的绿色按钮缩小地图;或者点击绿色箭头查看邻近地区的地图。


METAR-TAF: